ビサウ の空港の天気 - METARとTAF

オスヴァルド・ヴィエイラ国際空港 ( GGOV / OXB ) - ギニアビサウ ビサウ
飛行場実況気象(Metar)
観測時間07/15 11:00 GMT (07/15 11:00 UTC)
風向・風速南西 3m/s
視程10km以上
天気現象
全天の8割程度の雲 雲底高度 430m
少しの雲 雲底高度 610m
気温29℃
湿度79%
気圧1011hPa
METARGGOV 151100Z 22006KT 180V270 9999 BKN014 FEW020CB 29/25 Q1011 TEMPO TS
過去の天気等 Google飛行場航空写真 Wunderground天気予報

過去48時間のMETAR

飛行場予報(TAF)
発表時間: 7/14 17:00 GMT (7/14 17:00 UTC)
予報対象時間: 14日18時 GMT ~ 15日18時 GMT
風向・風速南西 2m/s
視程10km以上
全天の4割程度の雲 雲底高度 430m
14日22時 GMT ~ 15日3時 GMT に 確率 30% で一時的に
視程4000m
天気現象雷雨
全天の4割程度の雲 雲底高度 150m
全天の8割程度の雲 雲底高度 430m
少しの積乱雲 雲底高度 610m
15日7時 GMT ~ 15日9時 GMT に徐々に
全天の8割程度の雲 雲底高度 430m
TAF GGOV 141700Z 1418/1518 23004KT 9999 SCT014
PROB30 TEMPO 1422/1503 4000 TSRA SCT005 BKN014 FEW020CB
BECMG 1507/1509 BKN014